Time;durP1;ratioP1;P1;durP2;ratioP2;P2;SDS_P1;SDS_P2;PMS_P1;PMS_P2;Temp;Humidity;BMP_temperature;BMP_pressure;BME280_temperature;BME280_humidity;BME280_pressure;Samples;Min_cycle;Max_cycle;Signal;HPM_P1;HPM_P2
2022/02/02 00:00:44;;;;;;;26.10;10.80;;;;;;;-0.69;68.46;97272.67;106150;1274;111374;-70
2022/02/02 00:03:20;;;;;;;27.90;11.60;;;;;;;-0.68;68.57;97267.42;106145;1274;97907;-70
2022/02/02 00:05:59;;;;;;;28.30;11.40;;;;;;;-0.68;68.79;97263.41;106155;1274;108363;-68
2022/02/02 00:08:35;;;;;;;28.10;11.10;;;;;;;-0.67;68.55;97257.78;106092;1274;98013;-70
2022/02/02 00:21:52;;;;;;;28.00;10.90;;;;;;;-0.64;70.18;97243.34;106137;1274;95407;-70
2022/02/02 00:24:36;;;;;;;25.90;9.50;;;;;;;-0.64;70.29;97243.66;106119;1274;95810;-70
2022/02/02 00:27:08;;;;;;;24.40;9.30;;;;;;;-0.65;70.14;97232.95;106002;1274;110570;-70
2022/02/02 00:29:42;;;;;;;24.80;9.20;;;;;;;-0.66;70.36;97234.89;106128;1274;97860;-70
2022/02/02 00:32:23;;;;;;;24.70;10.30;;;;;;;-0.64;70.72;97231.33;106128;1274;107894;-70
2022/02/02 00:34:51;;;;;;;26.30;10.40;;;;;;;-0.66;70.29;97226.73;106143;1274;97719;-70
2022/02/02 00:37:19;;;;;;;22.40;9.00;;;;;;;-0.66;70.37;97233.85;106083;1274;97965;-69
2022/02/02 00:39:48;;;;;;;24.50;9.90;;;;;;;-0.64;70.50;97234.23;105958;1274;112086;-68
2022/02/02 00:42:20;;;;;;;30.30;10.40;;;;;;;-0.62;70.70;97230.98;106130;1274;97880;-68
2022/02/02 00:44:53;;;;;;;28.10;9.00;;;;;;;-0.63;70.80;97226.00;106129;1274;108907;-68
2022/02/02 00:47:26;;;;;;;28.20;10.30;;;;;;;-0.61;71.25;97225.23;106021;1274;97949;-70
2022/02/02 00:49:55;;;;;;;26.30;9.40;;;;;;;-0.64;71.13;97222.10;106185;1274;97860;-69
2022/02/02 00:52:25;;;;;;;25.90;9.00;;;;;;;-0.66;70.63;97217.51;105875;1274;111896;-70
2022/02/02 00:54:53;;;;;;;23.60;8.70;;;;;;;-0.65;71.23;97218.45;105876;1274;96553;-69
2022/02/02 00:57:23;;;;;;;26.80;9.70;;;;;;;-0.67;71.03;97204.30;106160;1274;108386;-73
2022/02/02 00:59:52;;;;;;;26.30;8.70;;;;;;;-0.69;70.87;97199.20;106072;1274;97879;-69
2022/02/02 01:02:19;;;;;;;27.50;9.70;;;;;;;-0.71;71.43;97194.46;105907;1274;97740;-69
2022/02/02 01:04:48;;;;;;;26.80;9.90;;;;;;;-0.80;71.71;97180.29;105902;1273;112313;-69
2022/02/02 01:07:26;;;;;;;26.40;8.80;;;;;;;-0.85;72.30;97178.73;106086;1274;97959;-70
2022/02/02 01:12:48;;;;;;;26.10;9.20;;;;;;;-1.00;72.83;97170.67;106147;1274;95201;-69
2022/02/02 01:18:46;;;;;;;25.70;10.10;;;;;;;-1.10;73.42;97165.11;105726;1280;113758;-69
2022/02/02 01:21:30;;;;;;;23.80;9.00;;;;;;;-1.12;73.95;97164.70;106126;1274;96373;-70
2022/02/02 01:29:32;;;;;;;26.60;11.80;;;;;;;-1.13;73.98;97143.71;106120;1274;96173;-71
2022/02/02 01:32:00;;;;;;;27.10;10.60;;;;;;;-1.14;73.85;97127.42;106234;1274;110955;-71
2022/02/02 01:34:28;;;;;;;23.80;8.60;;;;;;;-1.14;74.26;97130.75;106192;1274;96766;-69
2022/02/02 01:36:56;;;;;;;26.50;10.30;;;;;;;-1.15;74.28;97131.30;106162;1274;107657;-69
2022/02/02 01:39:27;;;;;;;23.20;9.20;;;;;;;-1.15;74.63;97130.45;106207;1274;97124;-71
2022/02/02 01:41:56;;;;;;;23.60;9.10;;;;;;;-1.15;74.39;97134.95;106162;1274;97977;-71
2022/02/02 01:46:54;;;;;;;24.40;9.80;;;;;;;-1.09;74.35;97134.80;106161;1274;97889;-71
2022/02/02 01:55:06;;;;;;;24.90;8.90;;;;;;;-0.94;74.69;97131.70;105970;1274;98660;-68
2022/02/02 02:00:31;;;;;;;20.90;7.60;;;;;;;-0.89;74.14;97119.73;105872;1274;97969;-68
2022/02/02 02:02:59;;;;;;;18.60;7.30;;;;;;;-0.83;74.78;97116.27;106109;1274;108369;-70
2022/02/02 02:05:27;;;;;;;22.10;7.80;;;;;;;-0.79;74.45;97111.67;106142;1274;97873;-69
2022/02/02 02:07:55;;;;;;;27.30;8.50;;;;;;;-0.76;74.58;97108.19;106111;1274;97975;-70
2022/02/02 02:10:24;;;;;;;19.30;7.60;;;;;;;-0.70;74.38;97104.77;106115;1274;111414;-70
2022/02/02 02:15:47;;;;;;;21.40;7.70;;;;;;;-0.64;74.75;97101.44;105978;1274;107969;-70
2022/02/02 02:18:14;;;;;;;21.80;8.50;;;;;;;-0.65;74.71;97096.77;106129;1274;97882;-69
2022/02/02 02:20:43;;;;;;;19.00;6.60;;;;;;;-0.64;74.59;97094.63;106008;1274;95646;-71
2022/02/02 02:23:11;;;;;;;21.80;7.10;;;;;;;-0.62;74.71;97093.33;106100;1274;112187;-72
2022/02/02 02:25:42;;;;;;;20.10;7.20;;;;;;;-0.60;74.73;97092.29;106124;1274;95187;-70
2022/02/02 02:30:52;;;;;;;18.50;7.30;;;;;;;-0.56;75.10;97092.80;106112;1274;97975;-68
2022/02/02 02:58:08;;;;;;;22.00;8.10;;;;;;;-0.54;75.39;97058.86;106104;1274;97938;-70
2022/02/02 03:00:53;;;;;;;19.70;7.50;;;;;;;-0.53;75.36;97059.89;106175;1274;95174;-69
2022/02/02 04:00:41;;;;;;;16.20;5.30;;;;;;;-0.40;77.26;97067.83;106081;1274;98026;-68
2022/02/02 04:05:47;;;;;;;14.60;5.10;;;;;;;-0.34;77.18;97066.05;106051;1274;97821;-69
2022/02/02 04:10:49;;;;;;;15.60;5.50;;;;;;;-0.31;77.42;97070.56;106130;1274;111894;-69
2022/02/02 04:17:01;;;;;;;14.90;4.60;;;;;;;-0.29;77.36;97075.86;106127;1274;108372;-69
2022/02/02 05:05:52;;;;;;;12.70;4.60;;;;;;;-0.04;77.31;97068.40;106108;1274;111279;-69
2022/02/02 05:08:36;;;;;;;11.80;4.10;;;;;;;-0.03;77.57;97070.11;105967;1274;97601;-69
2022/02/02 05:16:46;;;;;;;8.50;3.90;;;;;;;0.01;77.55;97077.03;106065;1274;97957;-69
2022/02/02 05:27:05;;;;;;;8.20;3.50;;;;;;;0.04;77.69;97078.60;105422;1280;108187;-69
2022/02/02 05:50:34;;;;;;;13.70;4.50;;;;;;;0.20;77.65;97087.37;105997;1274;97852;-67
2022/02/02 05:53:03;;;;;;;10.70;3.90;;;;;;;0.22;77.57;97090.16;106096;1274;108236;-69
2022/02/02 05:55:39;;;;;;;12.20;4.50;;;;;;;0.24;77.67;97099.95;106050;1275;97816;-70
2022/02/02 05:58:09;;;;;;;12.00;4.70;;;;;;;0.27;77.68;97098.08;106110;1274;96669;-70
2022/02/02 06:00:40;;;;;;;9.90;4.40;;;;;;;0.28;77.72;97096.76;106081;1274;111040;-70
2022/02/02 06:03:11;;;;;;;10.30;3.90;;;;;;;0.31;77.63;97102.36;106090;1274;95167;-70
2022/02/02 06:05:42;;;;;;;11.30;4.00;;;;;;;0.32;77.73;97098.30;106130;1274;107751;-70
2022/02/02 06:08:15;;;;;;;10.60;3.50;;;;;;;0.34;77.67;97106.16;106151;1274;97890;-69
2022/02/02 06:10:43;;;;;;;10.30;3.90;;;;;;;0.37;77.72;97101.29;106255;1274;97986;-68
2022/02/02 06:13:12;;;;;;;10.10;4.20;;;;;;;0.41;77.81;97108.02;106221;1274;112325;-71
2022/02/02 06:15:42;;;;;;;7.70;3.30;;;;;;;0.43;77.82;97108.36;106229;1274;97954;-70
2022/02/02 06:18:11;;;;;;;8.80;3.50;;;;;;;0.47;77.90;97113.20;106169;1274;107840;-67
2022/02/02 06:20:48;;;;;;;7.50;3.40;;;;;;;0.50;78.05;97117.20;106069;1274;97883;-70
2022/02/02 06:23:26;;;;;;;6.50;3.10;;;;;;;0.52;77.87;97117.44;106193;1274;97946;-67
2022/02/02 06:25:59;;;;;;;8.90;3.30;;;;;;;0.54;77.89;97119.21;106139;1274;111374;-68
2022/02/02 06:28:33;;;;;;;8.00;2.70;;;;;;;0.55;77.96;97125.09;106183;1273;97969;-69
2022/02/02 06:31:05;;;;;;;6.50;3.10;;;;;;;0.56;77.93;97122.58;106191;1274;107477;-69
2022/02/02 06:33:59;;;;;;;8.30;3.80;;;;;;;0.58;77.79;97123.88;106144;1274;97943;-68
2022/02/02 06:36:33;;;;;;;8.50;3.70;;;;;;;0.61;78.05;97129.45;106206;1274;97950;-68
2022/02/02 06:39:01;;;;;;;8.90;4.40;;;;;;;0.63;78.02;97129.47;106137;1274;111374;-69
2022/02/02 06:41:29;;;;;;;7.10;3.00;;;;;;;0.65;77.98;97138.08;106126;1274;98549;-71
2022/02/02 06:43:57;;;;;;;7.20;3.10;;;;;;;0.66;77.96;97134.85;106250;1274;107665;-69
2022/02/02 06:46:31;;;;;;;9.00;3.10;;;;;;;0.68;78.11;97139.97;106200;1274;97917;-71
2022/02/02 06:49:00;;;;;;;9.50;3.40;;;;;;;0.71;78.01;97143.29;106008;1275;96264;-72
2022/02/02 06:54:27;;;;;;;10.60;3.10;;;;;;;0.75;78.04;97146.70;106173;1274;98576;-74
2022/02/02 06:57:11;;;;;;;6.30;2.90;;;;;;;0.79;78.00;97147.19;106113;1274;108306;-74
2022/02/02 07:02:45;;;;;;;5.20;2.60;;;;;;;0.84;78.19;97153.63;105993;1274;96272;-72
2022/02/02 07:11:24;;;;;;;8.10;2.80;;;;;;;0.92;78.30;97151.59;105966;1274;110683;-71
2022/02/02 07:14:17;;;;;;;6.20;3.10;;;;;;;0.95;78.27;97155.75;105952;1274;97920;-72
2022/02/02 07:19:35;;;;;;;9.80;3.50;;;;;;;0.99;78.06;97165.92;106030;1274;111063;-72
2022/02/02 07:22:14;;;;;;;8.10;3.40;;;;;;;1.03;78.18;97166.05;106006;1274;97900;-73
2022/02/02 07:25:11;;;;;;;9.10;3.50;;;;;;;1.04;78.11;97161.91;106107;1274;107489;-70
2022/02/02 07:33:08;;;;;;;6.30;2.90;;;;;;;1.13;78.19;97171.02;106072;1274;110506;-70
2022/02/02 07:35:51;;;;;;;8.40;3.00;;;;;;;1.16;78.36;97172.91;106023;1275;97903;-69
2022/02/02 07:38:32;;;;;;;9.20;3.30;;;;;;;1.21;78.19;97174.67;106019;1274;107784;-72
2022/02/02 07:41:06;;;;;;;7.20;2.90;;;;;;;1.24;78.18;97172.02;106035;1274;97890;-71
2022/02/02 07:43:42;;;;;;;7.60;3.10;;;;;;;1.29;78.12;97169.45;106084;1274;95938;-71
2022/02/02 07:46:13;;;;;;;9.10;3.70;;;;;;;1.34;78.32;97170.17;105969;1276;110149;-71
2022/02/02 07:48:44;;;;;;;9.70;3.60;;;;;;;1.40;78.51;97169.94;106112;1274;95189;-72
2022/02/02 07:51:14;;;;;;;10.00;3.90;;;;;;;1.46;78.37;97169.91;106143;1274;108938;-71
2022/02/02 07:53:48;;;;;;;9.00;3.80;;;;;;;1.52;78.63;97171.59;106054;1274;97020;-71
2022/02/02 07:56:42;;;;;;;8.50;3.30;;;;;;;1.59;78.29;97175.66;106082;1274;95897;-71
2022/02/02 08:01:52;;;;;;;11.20;4.00;;;;;;;1.73;78.36;97184.53;106176;1274;97882;-70
2022/02/02 08:04:22;;;;;;;9.90;3.80;;;;;;;1.80;78.73;97186.37;106116;1274;107417;-70
2022/02/02 08:06:54;;;;;;;8.60;3.80;;;;;;;1.86;78.73;97187.90;105988;1274;99181;-70
2022/02/02 08:09:43;;;;;;;9.80;3.90;;;;;;;1.90;78.72;97186.23;106032;1274;98566;-69
2022/02/02 08:12:18;;;;;;;8.60;3.60;;;;;;;1.90;78.61;97190.05;106042;1274;111369;-70
2022/02/02 08:14:55;;;;;;;12.20;4.70;;;;;;;1.91;78.66;97187.67;106159;1274;98024;-69
2022/02/02 08:17:25;;;;;;;10.90;4.30;;;;;;;1.94;78.55;97192.92;106089;1274;110678;-70
2022/02/02 08:19:53;;;;;;;11.10;4.50;;;;;;;1.96;78.73;97198.27;106095;1274;99080;-69
2022/02/02 08:22:21;;;;;;;11.10;3.90;;;;;;;1.95;78.50;97195.32;106120;1274;97861;-69
2022/02/02 08:24:49;;;;;;;11.50;4.50;;;;;;;1.95;78.35;97199.33;106160;1275;112366;-71
2022/02/02 08:27:21;;;;;;;10.10;3.40;;;;;;;1.96;78.72;97195.80;106198;1274;97676;-69
2022/02/02 08:29:49;;;;;;;16.90;5.10;;;;;;;1.95;78.65;97205.48;106043;1274;107766;-69
2022/02/02 08:32:17;;;;;;;12.80;4.40;;;;;;;1.92;78.66;97203.72;106161;1274;97986;-71
2022/02/02 08:34:50;;;;;;;16.20;5.40;;;;;;;1.89;78.50;97205.34;105948;1275;95284;-70
2022/02/02 08:37:29;;;;;;;13.40;4.70;;;;;;;1.86;78.66;97208.34;106155;1274;112421;-70
2022/02/02 08:40:16;;;;;;;13.10;4.70;;;;;;;1.86;78.87;97206.07;106245;1274;97898;-70
2022/02/02 08:42:46;;;;;;;12.60;4.50;;;;;;;1.87;78.65;97208.64;106019;1275;107791;-68
2022/02/02 08:47:50;;;;;;;11.90;4.30;;;;;;;1.82;78.63;97206.30;106015;1274;97994;-70
2022/02/02 08:50:26;;;;;;;14.90;5.30;;;;;;;1.81;78.71;97209.17;106019;1274;111354;-70
2022/02/02 08:53:05;;;;;;;13.00;5.10;;;;;;;1.79;78.78;97214.73;106059;1274;95336;-69
2022/02/02 08:55:57;;;;;;;14.00;4.80;;;;;;;1.73;78.65;97214.45;106022;1274;107734;-70
2022/02/02 08:58:30;;;;;;;14.10;4.40;;;;;;;1.71;78.53;97222.09;106075;1274;95272;-69
2022/02/02 09:01:07;;;;;;;12.60;4.40;;;;;;;1.70;78.51;97230.33;106082;1274;97964;-70
2022/02/02 09:06:24;;;;;;;10.70;4.40;;;;;;;1.76;78.67;97221.19;106121;1274;96384;-69
2022/02/02 09:09:01;;;;;;;12.70;4.60;;;;;;;1.83;78.98;97221.27;105939;1274;107721;-70
2022/02/02 09:20:07;;;;;;;15.30;5.30;;;;;;;2.03;79.07;97231.98;105958;1275;97965;-69
2022/02/02 09:25:28;;;;;;;15.00;6.00;;;;;;;2.13;78.91;97232.28;105890;1276;96275;-72
2022/02/02 09:36:15;;;;;;;15.80;6.10;;;;;;;2.25;79.01;97244.02;105960;1276;107531;-71
2022/02/02 09:38:46;;;;;;;15.80;6.00;;;;;;;2.24;78.89;97242.86;105989;1276;97870;-70
2022/02/02 09:41:33;;;;;;;14.60;5.50;;;;;;;2.21;78.69;97242.17;105963;1276;98007;-71
2022/02/02 09:44:12;;;;;;;16.00;6.30;;;;;;;2.20;78.81;97244.02;105918;1275;111309;-71
2022/02/02 09:47:03;;;;;;;16.80;6.40;;;;;;;2.20;78.76;97245.35;105994;1276;98069;-70
2022/02/02 09:52:12;;;;;;;17.80;6.90;;;;;;;2.21;78.82;97241.64;105965;1276;97858;-70
2022/02/02 09:55:05;;;;;;;19.00;7.30;;;;;;;2.21;78.81;97236.77;105965;1276;97847;-69
2022/02/02 10:00:45;;;;;;;19.50;7.20;;;;;;;2.21;78.89;97233.98;105702;1281;98089;-69
2022/02/02 10:06:15;;;;;;;18.80;7.10;;;;;;;2.30;78.61;97230.55;105997;1276;97888;-70
2022/02/02 10:14:39;;;;;;;23.70;8.80;;;;;;;2.44;78.60;97225.61;106179;1274;98029;-67
2022/02/02 10:17:12;;;;;;;23.00;9.40;;;;;;;2.48;78.81;97226.35;106057;1274;107514;-69
2022/02/02 10:19:40;;;;;;;24.20;10.00;;;;;;;2.50;78.79;97224.60;106086;1274;97906;-70
2022/02/02 10:22:25;;;;;;;20.90;8.80;;;;;;;2.50;78.85;97225.00;106080;1274;96355;-71
2022/02/02 10:25:02;;;;;;;21.20;8.30;;;;;;;2.49;78.76;97225.77;106065;1274;111343;-70
2022/02/02 10:27:34;;;;;;;21.50;8.40;;;;;;;2.49;78.80;97227.15;106070;1274;97985;-70
2022/02/02 10:30:21;;;;;;;18.60;7.70;;;;;;;2.50;78.56;97233.19;106067;1274;108837;-69
2022/02/02 10:32:51;;;;;;;22.00;8.20;;;;;;;2.51;78.67;97233.63;106163;1274;97993;-73
2022/02/02 10:35:38;;;;;;;22.50;9.00;;;;;;;2.53;78.74;97238.61;106166;1274;97838;-69
2022/02/02 10:38:38;;;;;;;20.40;8.60;;;;;;;2.58;78.83;97235.82;105974;1274;111290;-70
2022/02/02 10:41:17;;;;;;;21.20;7.60;;;;;;;2.61;78.98;97232.64;106067;1274;98560;-70
2022/02/02 10:44:02;;;;;;;20.20;7.70;;;;;;;2.64;78.82;97241.52;106046;1274;107562;-70
2022/02/02 10:52:34;;;;;;;16.70;7.00;;;;;;;2.71;78.99;97242.48;105995;1274;111222;-69
2022/02/02 11:06:42;;;;;;;22.70;9.20;;;;;;;2.76;78.58;97259.45;106110;1274;112542;-70
2022/02/02 11:09:13;;;;;;;24.40;10.00;;;;;;;2.76;78.76;97264.33;106122;1274;97979;-69
2022/02/02 11:11:43;;;;;;;21.30;8.30;;;;;;;2.78;78.64;97269.30;106034;1274;106962;-71
2022/02/02 11:14:25;;;;;;;22.10;9.20;;;;;;;2.78;78.55;97271.73;105921;1277;97954;-70
2022/02/02 11:17:02;;;;;;;21.40;9.20;;;;;;;2.78;78.90;97271.02;106093;1274;97886;-71
2022/02/02 11:19:34;;;;;;;22.30;9.40;;;;;;;2.76;79.04;97273.11;106048;1274;111213;-71
2022/02/02 11:22:31;;;;;;;22.80;10.30;;;;;;;2.75;78.96;97275.45;106121;1274;97867;-70
2022/02/02 11:25:02;;;;;;;21.80;9.90;;;;;;;2.73;78.78;97278.52;106141;1274;106899;-74
2022/02/02 11:27:43;;;;;;;22.90;8.90;;;;;;;2.74;78.79;97273.91;106122;1274;97972;-71
2022/02/02 11:30:23;;;;;;;20.90;9.50;;;;;;;2.74;78.72;97272.85;106058;1275;97969;-69
2022/02/02 11:32:52;;;;;;;21.30;8.30;;;;;;;2.77;78.76;97269.54;106104;1274;111396;-70
2022/02/02 11:35:46;;;;;;;21.20;8.90;;;;;;;2.78;78.61;97276.29;106096;1274;95790;-69
2022/02/02 11:38:38;;;;;;;18.30;7.70;;;;;;;2.79;78.59;97284.61;106044;1274;107709;-70
2022/02/02 11:44:08;;;;;;;20.90;8.70;;;;;;;2.80;78.92;97276.11;106079;1274;95278;-71
2022/02/02 11:46:53;;;;;;;21.30;8.50;;;;;;;2.81;78.83;97290.04;105927;1275;111442;-71
2022/02/02 11:49:21;;;;;;;20.10;7.80;;;;;;;2.82;78.88;97291.04;106157;1274;97915;-72
2022/02/02 11:51:57;;;;;;;23.60;8.00;;;;;;;2.84;78.64;97288.84;106165;1274;107593;-70
2022/02/02 11:54:32;;;;;;;24.00;7.90;;;;;;;2.88;78.89;97295.73;106123;1274;97847;-70
2022/02/02 11:57:03;;;;;;;19.40;6.20;;;;;;;2.93;78.82;97297.49;106088;1274;97882;-70
2022/02/02 12:57:46;;;;;;;17.00;5.40;;;;;;;3.42;78.02;97349.16;106116;1274;96307;-70
2022/02/02 13:00:36;;;;;;;19.90;6.40;;;;;;;3.48;77.82;97349.32;106019;1274;108771;-72
2022/02/02 13:03:08;;;;;;;20.50;6.30;;;;;;;3.57;78.22;97355.75;106013;1274;97906;-70
2022/02/02 13:05:39;;;;;;;17.80;6.10;;;;;;;3.62;77.58;97357.11;106161;1274;96426;-71
2022/02/02 13:08:10;;;;;;;23.50;7.80;;;;;;;3.65;77.44;97355.84;106132;1274;111390;-71
2022/02/02 13:10:40;;;;;;;22.40;6.10;;;;;;;3.67;77.66;97363.92;106094;1274;97976;-72
2022/02/02 13:13:10;;;;;;;19.40;5.80;;;;;;;3.69;77.79;97372.18;106060;1277;107771;-70
2022/02/02 13:15:53;;;;;;;20.60;6.00;;;;;;;3.72;77.47;97374.44;106093;1274;98576;-71
2022/02/02 13:18:26;;;;;;;15.20;5.10;;;;;;;3.76;77.86;97375.06;106097;1277;97772;-69
2022/02/02 13:21:05;;;;;;;18.40;5.80;;;;;;;3.77;77.14;97377.23;106000;1277;111502;-70
2022/02/02 13:23:42;;;;;;;18.60;6.10;;;;;;;3.77;77.35;97384.60;106049;1277;97979;-71
2022/02/02 13:26:28;;;;;;;15.70;5.30;;;;;;;3.74;77.33;97393.96;106035;1274;107604;-70
2022/02/02 13:32:38;;;;;;;20.70;7.00;;;;;;;3.58;77.33;97411.74;106081;1277;95219;-71
2022/02/02 13:43:04;;;;;;;20.70;6.60;;;;;;;3.22;77.52;97425.11;106072;1274;96571;-71
2022/02/02 13:53:56;;;;;;;21.10;6.80;;;;;;;2.98;77.68;97426.53;105931;1274;107745;-71
2022/02/02 14:31:39;;;;;;;24.00;9.20;;;;;;;2.87;77.40;97452.66;106133;1274;97866;-73
2022/02/02 14:34:27;;;;;;;22.70;9.50;;;;;;;2.87;77.40;97454.27;106523;1275;109111;-72
2022/02/02 14:36:55;;;;;;;26.70;10.20;;;;;;;2.90;77.71;97463.52;105908;1274;95856;-68
2022/02/02 14:39:43;;;;;;;23.10;8.80;;;;;;;2.90;77.64;97469.24;106095;1274;98159;-74
2022/02/02 14:42:18;;;;;;;26.20;9.80;;;;;;;2.89;77.55;97474.23;106057;1274;111239;-70
2022/02/02 14:44:47;;;;;;;28.30;8.80;;;;;;;2.89;77.50;97485.96;106097;1274;97843;-71
2022/02/02 14:47:36;;;;;;;23.40;8.40;;;;;;;2.90;77.44;97487.64;105958;1274;107769;-71
2022/02/02 14:50:32;;;;;;;24.80;9.00;;;;;;;2.90;77.52;97483.97;105892;1275;98023;-70
2022/02/02 14:53:20;;;;;;;26.30;8.90;;;;;;;2.90;77.74;97502.04;106052;1274;95309;-73
2022/02/02 15:31:41;;;;;;;23.70;7.80;;;;;;;2.72;77.44;97573.71;105263;1274;1183219;-72
2022/02/02 15:34:37;;;;;;;21.20;7.60;;;;;;;2.68;77.23;97573.95;106093;1274;95313;-69
2022/02/02 15:39:46;;;;;;;26.60;9.10;;;;;;;2.57;77.27;97583.25;106124;1274;97993;-70
2022/02/02 15:42:35;;;;;;;20.10;7.20;;;;;;;2.53;77.34;97590.35;106087;1274;107783;-72
2022/02/02 15:59:07;;;;;;;20.60;6.60;;;;;;;2.31;77.44;97641.37;106028;1274;97912;-71
2022/02/02 16:04:22;;;;;;;22.10;7.70;;;;;;;2.24;77.41;97657.40;106044;1274;111481;-71
2022/02/02 16:06:53;;;;;;;27.60;10.30;;;;;;;2.20;77.37;97667.40;105993;1275;97895;-72
2022/02/02 16:09:28;;;;;;;24.90;8.30;;;;;;;2.18;77.46;97669.27;106103;1277;108266;-70
2022/02/02 16:14:52;;;;;;;25.00;8.70;;;;;;;2.16;77.27;97681.12;105982;1274;95829;-70
2022/02/02 16:18:31;;;;;;;25.20;10.30;;;;;;;2.13;77.54;97686.73;106048;1274;111495;-69
2022/02/02 16:31:34;;;;;;;31.40;12.90;;;;;;;2.00;77.17;97717.94;106107;1274;112050;-70
2022/02/02 16:37:02;;;;;;;32.20;11.00;;;;;;;2.05;77.53;97733.73;106052;1274;107732;-69
2022/02/02 16:39:35;;;;;;;29.10;11.40;;;;;;;2.07;77.48;97738.67;105985;1274;97851;-70
2022/02/02 16:44:54;;;;;;;29.50;13.20;;;;;;;2.09;77.57;97752.35;106067;1274;111595;-70
2022/02/02 16:47:22;;;;;;;27.70;11.30;;;;;;;2.10;77.49;97757.73;106058;1274;97028;-73
2022/02/02 16:50:17;;;;;;;29.40;12.50;;;;;;;2.11;77.37;97766.75;106161;1274;107907;-72
2022/02/02 16:52:48;;;;;;;29.00;11.80;;;;;;;2.11;77.41;97769.23;106220;1274;97924;-71
2022/02/02 16:55:30;;;;;;;27.20;10.30;;;;;;;2.08;77.62;97771.45;106066;1274;97874;-71
2022/02/02 17:31:33;;;;;;;24.80;9.20;;;;;;;1.84;77.49;97836.02;106031;1274;107800;-73
2022/02/02 17:34:17;;;;;;;25.40;10.10;;;;;;;1.81;77.38;97847.36;106158;1274;97829;-69
2022/02/02 17:43:09;;;;;;;;;;;;;;;1.72;77.39;97862.88;105912;1274;96701;-70
2022/02/02 17:45:34;;;;;;;25.10;9.60;;;;;;;1.69;77.61;97870.56;106142;1272;107787;-73
2022/02/02 18:21:06;;;;;;;34.70;14.70;;;;;;;1.51;77.48;97937.75;106051;1274;111870;-72
2022/02/02 18:26:57;;;;;;;37.30;15.70;;;;;;;1.45;77.17;97947.84;106065;1274;107730;-71
2022/02/02 18:31:44;;;;;;;;;;;;;;;1.41;77.39;97960.99;106015;1274;97989;-71
2022/02/02 18:37:40;;;;;;;36.30;15.40;;;;;;;1.40;77.35;97971.21;106092;1274;97890;-71
2022/02/02 18:56:23;;;;;;;34.40;16.00;;;;;;;1.24;77.49;98012.89;106023;1274;97788;-70
2022/02/02 18:59:03;;;;;;;36.80;15.80;;;;;;;1.22;77.48;98020.31;106029;1274;96589;-70
2022/02/02 19:52:17;;;;;;;33.10;15.50;;;;;;;1.19;77.63;98111.48;105966;1274;97805;-72
2022/02/02 20:05:39;;;;;;;32.20;15.80;;;;;;;1.11;77.65;98150.45;106216;1274;97879;-70
2022/02/02 20:08:36;;;;;;;32.40;16.70;;;;;;;1.12;77.70;98153.17;106191;1274;97825;-71
2022/02/02 20:11:15;;;;;;;32.60;15.30;;;;;;;1.11;77.70;98162.14;106124;1274;111554;-71
2022/02/02 20:13:43;;;;;;;34.00;16.10;;;;;;;1.09;77.64;98162.41;106169;1274;97876;-71
2022/02/02 20:16:12;;;;;;;35.60;17.40;;;;;;;1.07;77.48;98166.52;106160;1274;106850;-71
2022/02/02 20:18:44;;;;;;;33.20;16.20;;;;;;;1.07;77.62;98172.81;106021;1274;97960;-71
2022/02/02 20:21:21;;;;;;;38.20;19.00;;;;;;;1.07;77.58;98175.60;105991;1274;95281;-71
2022/02/02 20:23:51;;;;;;;35.90;17.50;;;;;;;1.07;77.69;98184.84;106031;1274;111467;-71
2022/02/02 20:26:23;;;;;;;37.00;18.10;;;;;;;1.06;77.66;98188.38;105929;1274;97722;-70
2022/02/02 20:29:01;;;;;;;36.20;17.60;;;;;;;1.06;77.71;98187.55;105952;1274;110197;-71
2022/02/02 20:31:33;;;;;;;38.50;18.60;;;;;;;1.08;77.62;98197.04;105985;1274;97989;-71
2022/02/02 20:34:03;;;;;;;32.20;13.90;;;;;;;1.08;77.58;98206.10;105999;1274;97983;-71
2022/02/02 20:36:32;;;;;;;29.70;14.90;;;;;;;1.10;77.69;98213.71;106050;1274;112675;-73
2022/02/02 20:39:09;;;;;;;32.80;15.30;;;;;;;1.11;77.86;98218.86;105993;1276;98020;-73
2022/02/02 20:41:40;;;;;;;32.10;15.00;;;;;;;1.13;77.64;98222.67;105969;1274;108895;-70
2022/02/02 20:44:18;;;;;;;30.10;15.30;;;;;;;1.13;77.65;98227.35;105963;1274;96013;-71
2022/02/02 21:00:21;;;;;;;33.30;15.60;;;;;;;1.15;77.64;98247.01;105997;1274;97825;-73
2022/02/02 21:10:44;;;;;;;29.60;14.20;;;;;;;1.19;77.80;98271.60;106075;1274;97899;-72
2022/02/02 21:15:59;;;;;;;30.70;15.50;;;;;;;1.22;77.74;98277.08;106096;1274;112316;-69
2022/02/02 21:18:33;;;;;;;30.40;14.50;;;;;;;1.22;77.86;98283.52;106042;1274;95396;-71
2022/02/02 21:21:14;;;;;;;31.90;15.50;;;;;;;1.23;77.73;98294.31;106063;1274;107744;-70
2022/02/02 21:29:17;;;;;;;31.00;14.90;;;;;;;1.20;77.61;98304.39;105973;1274;111382;-69
2022/02/02 21:31:46;;;;;;;28.50;13.80;;;;;;;1.20;77.73;98310.33;106063;1274;97926;-69
2022/02/02 21:34:15;;;;;;;29.00;13.80;;;;;;;1.20;77.77;98315.39;106133;1274;107751;-69
2022/02/02 21:36:43;;;;;;;30.10;14.30;;;;;;;1.20;77.85;98318.55;106116;1274;97968;-72
2022/02/02 21:39:22;;;;;;;28.70;14.60;;;;;;;1.21;77.76;98319.21;106127;1274;97948;-70
2022/02/02 21:41:54;;;;;;;28.70;13.40;;;;;;;1.19;77.72;98325.04;106074;1274;111395;-71
2022/02/02 21:44:25;;;;;;;28.90;14.10;;;;;;;1.17;77.62;98327.55;106121;1274;97875;-70
2022/02/02 21:46:53;;;;;;;26.90;12.80;;;;;;;1.17;77.67;98330.86;105985;1274;107820;-70
2022/02/02 21:49:23;;;;;;;26.70;13.10;;;;;;;1.17;77.78;98338.23;106106;1273;97900;-70
2022/02/02 21:54:21;;;;;;;26.60;12.40;;;;;;;1.18;77.52;98352.36;105939;1274;111023;-71
2022/02/02 21:56:48;;;;;;;28.10;12.50;;;;;;;1.17;77.74;98359.02;105948;1274;96055;-71
2022/02/02 21:59:19;;;;;;;27.00;12.50;;;;;;;1.17;77.75;98368.63;106300;1274;106675;-72
2022/02/02 22:01:47;;;;;;;28.30;12.30;;;;;;;1.18;77.60;98374.19;107862;1273;95937;-71
2022/02/02 22:04:15;;;;;;;27.60;11.90;;;;;;;1.18;77.68;98377.64;107920;1273;96061;-71
2022/02/02 22:06:43;;;;;;;27.40;12.60;;;;;;;1.19;77.71;98384.42;106926;1274;110929;-70
2022/02/02 22:09:11;;;;;;;29.10;13.10;;;;;;;1.20;77.68;98391.70;106329;1274;97958;-72
2022/02/02 22:11:39;;;;;;;28.30;12.20;;;;;;;1.21;77.32;98402.52;106894;1274;107500;-71
2022/02/02 22:14:13;;;;;;;29.40;11.10;;;;;;;1.21;77.69;98407.05;106468;1274;97945;-71
2022/02/02 22:16:46;;;;;;;31.60;13.90;;;;;;;1.18;77.65;98413.28;107051;1274;95706;-71
2022/02/02 22:19:16;;;;;;;28.80;12.30;;;;;;;1.17;77.56;98415.22;107930;1274;112404;-71
2022/02/02 22:21:44;;;;;;;34.50;14.60;;;;;;;1.17;77.25;98421.39;107955;1274;95839;-71
2022/02/02 22:24:17;;;;;;;32.60;13.60;;;;;;;1.16;77.49;98425.41;107949;1273;107762;-70
2022/02/02 22:26:45;;;;;;;29.50;11.60;;;;;;;1.17;77.53;98430.58;107965;1272;95921;-69
2022/02/02 22:29:13;;;;;;;31.80;12.60;;;;;;;1.18;77.41;98432.84;106459;1274;95898;-71
2022/02/02 22:31:41;;;;;;;30.90;12.60;;;;;;;1.16;77.48;98438.33;106155;1274;111211;-71
2022/02/02 22:34:09;;;;;;;27.10;12.30;;;;;;;1.18;77.55;98445.63;106186;1274;97685;-71
2022/02/02 22:36:37;;;;;;;26.70;11.40;;;;;;;1.19;77.54;98445.71;106140;1274;107695;-72
2022/02/02 22:39:10;;;;;;;26.00;11.10;;;;;;;1.18;77.66;98447.50;106146;1274;97851;-72
2022/02/02 22:41:45;;;;;;;25.50;10.50;;;;;;;1.17;77.50;98454.71;106152;1274;98040;-70
2022/02/02 22:44:17;;;;;;;23.80;10.90;;;;;;;1.17;77.45;98459.95;106183;1274;111388;-69
2022/02/02 22:46:45;;;;;;;23.10;10.60;;;;;;;1.15;77.36;98460.38;106161;1274;97860;-70
2022/02/02 22:49:13;;;;;;;24.60;9.70;;;;;;;1.14;77.49;98460.77;106208;1274;107740;-70
2022/02/02 22:51:43;;;;;;;22.10;9.20;;;;;;;1.13;77.37;98464.83;106184;1273;97837;-71
2022/02/02 22:54:15;;;;;;;24.60;9.30;;;;;;;1.12;77.46;98470.30;106198;1274;97858;-70
2022/02/02 22:56:50;;;;;;;20.50;8.50;;;;;;;1.12;77.58;98479.02;106139;1274;111434;-71
2022/02/02 22:59:24;;;;;;;26.30;11.50;;;;;;;1.13;77.61;98479.38;106216;1274;97900;-70
2022/02/02 23:01:59;;;;;;;23.70;10.00;;;;;;;1.13;77.69;98486.67;106124;1274;107420;-71
2022/02/02 23:04:28;;;;;;;24.60;9.70;;;;;;;1.13;77.53;98487.92;106010;1274;96283;-70